Argyle Township, ME

10:11 AM EDT on July 30, 2015 (GMT -0400)
MesoWest | | Change Station
CLOSE
Current Station
Personal Weather Station
Location: Old Town, ME
Elevation: 127 ft
Nearby Weather Stations

Elev 127 ft 44.95 °N, 68.67 °W | Updated 41 minutes ago

Partly Cloudy
Partly Cloudy
76 °F
Feels Like 78 °F
N
1
Wind Variable Wind from South
Gusts 6.0 mph

Today
High -- | Low -- °F
--% Chance of Precip.
Yesterday
High -- | Low -- °F
Precip. -- in
5:17 AM 8:03 PM
Waxing Gibbous, 99% visible
Pressure 29.85 in
Visibility 6.0 miles
Clouds Few 8000 ft
Mostly Cloudy 20000 ft
Heat Index 78 °F
Dew Point 66 °F
Humidity 70%
Rainfall in
Snow Depth Not available.
UV 4 out of 12
Pollen 4.20 out of 12
Air Quality Not available.
Flu Activity Not available.
METAR KBGR 301353Z VRB05KT 6SM HZ FEW080 BKN200 26/19 A2986 RMK AO2 SLP107 MOD CU S-NW ACCAS OHD T02560189

More Conditions Fewer Conditions

Pressure 29.85 in
Visibility 6.0 miles
Clouds Few 8000 ft
Mostly Cloudy 20000 ft
Heat Index 78 °F
Dew Point 66 °F
Humidity 70%
Rainfall in
Snow Depth Not available.
UV 4 out of 12
Pollen 4.20 out of 12
Air Quality Not available.
Flu Activity Not available.
METAR KBGR 301353Z VRB05KT 6SM HZ FEW080 BKN200 26/19 A2986 RMK AO2 SLP107 MOD CU S-NW ACCAS OHD T02560189

More Conditions Fewer Conditions

10-Day Weather Forecast

×

Almanac

Astronomy

Jul. 30, 2015 Rise Set
Actual Time
Civil Twilight
Nautical Twilight
Astronomical Twilight
Moon
Length of Visible Light
Length of Day
Tomorrow will be .
, % of the Moon is Illuminated

Today's Extremes

State Highs State Lows

Community

WunderPhotos

Upload Photos

1,842,387 photos uploaded!

WunderBlogs® & News

Nearby

Air Quality

  Air Quality AQ Index Pollutant
Not available.

Snow Depth

Station Depth Elevation

Earthquake Activity

City Distance Mag. Time & Date
Minimum magnitude displayed is 2.5.

Coastal Water Temperatures

Place Temperature

Stations

Nearby Weather Stations

Station Location Temp. Windchill Dew Point Humidity Wind Precip. Elev Updated Type